ジョン・F・ケネディ国際空港の過去48時間の天気

ジョン・F・ケネディ国際空港 (New York, Kennedy International Airport)

現在時刻: 4/26 02:04 EDT (4/26 06:04 UTC) 以下の時間は現地時間です。

過去48時間のMETAR気象情報
時間 風向 風速(m/s) 視程 気温(℃) 湿度(%) 気圧(hPa) 天気現象
26 01:51 北北東 3 10km以上 12.8 96 1009
26 00:51 北北東 7 10km以上 13.3 97 1009.1
25 23:51 8 10km以上 13.9 96 1010.6 弱い雨
25 22:51 7 10km以上 14.4 93 1011.7 弱い雨
25 21:51 北東 6 10km以上 13.3 97 1011.6 弱い雨
25 20:51 北東 7 4,850m 12.2 97 1012.1 雨 もや
25 19:51 東北東 10 4,850m 12.2 93 1012 弱い雨 もや
25 19:47 東北東 9 4,850m 12 94 1012 弱い雨 もや
25 18:51 北東 9 4,000m 12.2 97 1012.5 強い雨 もや
25 18:34 北東 10 4,000m 12.2 97 1013 強い雨 もや
25 17:51 北東 9 4,850m 12.8 96 1013.1 雨 もや
25 16:51 東北東 9 4,850m 12.8 96 1014 雨 もや
25 15:51 北東 8 8,050m 13.9 93 1014.6 弱い雨 もや
25 14:51 北東 9 10km以上 13.9 89 1015.6 弱い雨
25 14:42 東北東 10 10km以上 13.9 89 1016 弱い雨
25 13:51 北東 7 10km以上 13.9 89 1016.3 弱い雨
25 12:51 東北東 7 10km以上 13.3 93 1017.7 弱い雨
25 11:51 東北東 9 10km以上 13.3 90 1018.2
25 10:51 北東 9 8,050m 12.8 93 1018.8 弱い雨 もや
25 10:10 東北東 8 10km以上 12.8 89 1019 弱い雨 もや
25 10:02 東北東 8 4,000m 12.2 93 1019 弱い雨 もや
25 09:51 東北東 7 10km以上 12.2 93 1019
25 08:51 北東 7 4,850m 11.7 93 1018.8 弱い霧雨 もや
25 08:23 東北東 7 10km以上 11.7 93 1019 弱い霧雨
25 07:51 北東 9 10km以上 11.1 93 1018.8
25 07:37 東北東 7 10km以上 11.1 93 1019 弱い雨
25 07:01 北東 6 10km以上 10.6 96 1019 弱い雨 もや
25 06:51 北東 7 4,000m 10.6 96 1018.7 雨 もや
25 06:37 北東 7 4,000m 10.6 96 1019 弱い雨 もや
25 05:51 北東 7 8,050m 10.6 92 1018 弱い雨 もや
25 05:41 北東 8 8,050m 10.6 92 1018 雨 もや
25 04:51 北東 7 10km以上 11.1 89 1018.4 弱い雨
25 03:51 北東 5 10km以上 11.7 89 1018.4 弱い雨
25 03:28 北東 5 10km以上 11.7 89 1019 弱い雨
25 02:51 東北東 6 10km以上 11.7 89 1018.7
25 02:27 東北東 5 10km以上 11.7 89 1019
25 01:51 東北東 5 10km以上 11.7 89 1019.3
25 01:01 東北東 5 10km以上 11.7 89 1020 弱い雨
25 00:51 東北東 6 10km以上 11.7 89 1020.1 弱い雨
24 23:51 東北東 4 10km以上 11.7 86 1020.4
24 22:51 6 10km以上 12.2 74 1020.6 弱い雨
24 21:51 4 10km以上 12.2 69 1020.6
24 20:51 東北東 4 10km以上 12.2 59 1020.4
24 19:51 5 10km以上 12.2 64 1020.5 弱い雨
24 18:51 4 10km以上 12.2 74 1020.9
24 17:51 4 10km以上 12.8 64 1021 弱い雨
24 16:51 東南東 4 10km以上 12.2 61 1021.2
24 15:51 4 10km以上 12.2 61 1020.8
24 14:51 南東 5 10km以上 12.8 64 1021.5
24 13:51 東南東 4 10km以上 13.3 67 1021.2
24 12:51 東南東 5 10km以上 12.8 66 1021.7
24 11:51 東南東 4 10km以上 13.3 60 1022
24 10:51 南東 3 10km以上 12.8 62 1022.3
24 09:51 2 10km以上 11.7 71 1022.2
24 08:51 東南東 3 10km以上 10.6 83 1022.2
24 07:51 東南東 3 10km以上 10 93 1022
24 06:51 2 10km以上 8.9 96 1021.3
24 05:51 2 10km以上 7.8 96 1020.6
24 04:51 静穏 0 10km以上 6.7 96 1020.5
24 03:51 2 10km以上 6.7 96 1020
24 02:51 南東 2 10km以上 7.8 96 1019.9
KJFK 260551Z 02006KT 10SM OVC005 13/12 A2980 RMK AO2 RAB14E44 SLP090 P0000 60033 T01280122 10150 20117 56027
KJFK 260451Z 03013KT 10SM OVC005 13/13 A2980 RMK AO2 RAE0354 SLP091 P0000 T01330128 401500106
KJFK 260351Z 08015G23KT 10SM -RA OVC006 14/13 A2985 RMK AO2 SLP106 P0004 T01390133
KJFK 260251Z 08013KT 8SM -RA OVC007 14/13 A2988 RMK AO2 PK WND 06031/0212 SLP117 P0003 60029 T01440133 57003
KJFK 260151Z 04012KT 10SM -RA OVC009 13/13 A2987 RMK AO2 SLP116 P0017 T01330128
KJFK 260051Z 04014KT 3SM RA BR BKN008 OVC016 12/12 A2989 RMK AO2 SFC VIS 4 VIS 2 W SLP121 P0009 T01220117
KJFK 252351Z 06019G27KT 3SM -RA BR BKN008 OVC017 12/11 A2989 RMK AO2 PK WND 05027/2342 SFC VIS 6 SLP120 P0012 60047 T01220111 10139 20122 55011
KJFK 252347Z 06017G27KT 3SM -RA BR BKN008 OVC017 12/11 A2989 RMK AO2 PK WND 05027/2342 SFC VIS 5 P0012
KJFK 252251Z 05017KT 2 1/2SM R04R/5000V6000FT +RA BR BKN008 OVC014 12/12 A2990 RMK AO2 TWR VIS 3 SLP125 P0018 T01220117
KJFK 252234Z 05019G22KT 2 1/2SM R04R/6000VP6000FT +RA BR BKN008 OVC014 12/12 A2991 RMK AO2 TWR VIS 3 P0013 T01220117
KJFK 252151Z 05018KT 3SM R04R/5000VP6000FT RA BR BKN008 OVC016 13/12 A2992 RMK AO2 SLP131 P0008 T01280122
KJFK 252051Z 06018KT 3SM R04R/5500VP6000FT RA BR BKN007 BKN011 OVC017 13/12 A2994 RMK AO2 SFC VIS 4 SLP140 P0007 60009 T01280122 57023
KJFK 251951Z 05016G23KT 5SM -RA BR BKN008 OVC012 14/13 A2996 RMK AO2 SLP146 P0002 T01390128
KJFK 251851Z 05018KT 10SM -RA OVC009 14/12 A2999 RMK AO2 SLP156 P0000 T01390122
KJFK 251842Z 06020G23KT 10SM -RA OVC009 14/12 A3000 RMK AO2 P0000 T01390122
KJFK 251751Z 05014KT 10SM -RA OVC010 14/12 A3001 RMK AO2 RAE13B41 SLP163 CIG 008V012 P0000 60000 T01390122 10139 20111 58025
KJFK 251651Z 06014KT 8SM -RA OVC008 13/12 A3005 RMK AO2 RAB1556E08B41 SLP177 P0000 T01330122
KJFK 251551Z 07018KT 10SM OVC009 13/12 A3007 RMK AO2 RAE05 SLP182 P0000 T01330117
KJFK 251451Z 05017KT 5SM -RA BR OVC008 13/12 A3009 RMK AO2 RAB00E17B46 SLP188 P0000 60000 T01280117 50000
KJFK 251410Z 06015KT 6SM -RA BR OVC009 13/11 A3009 RMK AO2 RAB00 P0000 T01280111
KJFK 251402Z 06016KT 2 1/2SM R04R/5500VP6000FT -RA BR OVC009 12/11 A3009 RMK AO2 RAB00 P0000 T01220111
KJFK 251351Z 07013G20KT 8SM OVC009 12/11 A3009 RMK AO2 DZE42RAB42E43 SLP190 CIG 007V011 P0000 T01220111
KJFK 251251Z 05014KT 3SM -DZ BR OVC007 12/11 A3009 RMK AO2 DZB23 SLP188 P0000 T01170106
KJFK 251223Z 06014KT 8SM -DZ OVC009 12/11 A3009 RMK AO2 DZB23 CIG 007V011 P0000 T01170106
KJFK 251151Z 05018KT 10SM FEW007 OVC012 11/10 A3009 RMK AO2 RAE38 SLP188 P0005 60018 70019 T01110100 10122 20106 53004
KJFK 251137Z 06013KT 10SM -RA SCT007 OVC012 11/10 A3009 RMK AO2 P0005 T01110100
KJFK 251101Z 05012KT 6SM -RA BR BKN008 OVC014 11/10 A3008 RMK AO2 P0004 T01060100
KJFK 251051Z 05014KT 2 1/2SM RA BR OVC006 11/10 A3008 RMK AO2 RAE01B27 SLP187 P0005 T01060100
KJFK 251037Z 05013KT 2 1/2SM -RA BR OVC007 11/10 A3008 RMK AO2 RAE01B27 P0001 T01060100
KJFK 250951Z 04014KT 5SM -RA BR OVC009 11/09 A3006 RMK AO2 SLP180 P0008 T01060094
KJFK 250941Z 04015KT 5SM RA BR BKN009 OVC025 11/09 A3006 RMK AO2 P0008 T01060094
KJFK 250851Z 05014G20KT 10SM -RA FEW015 OVC024 11/09 A3008 RMK AO2 SLP184 P0000 60000 T01110094 56009
KJFK 250751Z 05010KT 10SM -RA FEW013 OVC027 12/10 A3008 RMK AO2 RAB06 SLP184 P0000 T01170100
KJFK 250728Z 05009KT 10SM -RA FEW013 OVC029 12/10 A3008 RMK AO2 RAB06 P0000 T01170100
KJFK 250651Z 06011KT 10SM SCT012 OVC039 12/10 A3009 RMK AO2 RAB29E43 SLP187 P0000 T01170100
KJFK 250627Z 06010KT 10SM SCT012 OVC039 12/10 A3009 RMK AO2 T01170100
KJFK 250551Z 07010KT 10SM BKN012 OVC055 12/10 A3010 RMK AO2 RAE41 SLP193 P0000 60000 T01170100 10128 20117 58013
KJFK 250501Z 07010KT 10SM -RA BKN012 OVC060 12/10 A3012 RMK AO2 P0000 T01170100
KJFK 250451Z 07011KT 10SM -RA SCT012 OVC060 12/10 A3013 RMK AO2 RAB51 SLP201 P0000 T01170100 401390067
KJFK 250351Z 06007KT 10SM FEW012 OVC060 12/09 A3014 RMK AO2 RAE39 SLP204 P0000 T01170094
KJFK 250251Z 08011KT 10SM -RA OVC070 12/08 A3014 RMK AO2 RAB50 SLP206 P0000 60000 T01220078 53001
KJFK 250151Z 08007KT 10SM BKN070 OVC110 12/07 A3014 RMK AO2 SLP206 T01220067
KJFK 250051Z 07007KT 10SM FEW065 BKN080 BKN100 OVC150 12/04 A3014 RMK AO2 RAE01 SLP204 P0000 T01220044
KJFK 242351Z 08009KT 10SM -RA FEW055 BKN080 BKN110 OVC130 12/06 A3014 RMK AO2 RAB43 SLP205 P0000 60001 T01220056 10133 20122 58007
KJFK 242251Z 09008KT 10SM FEW070 BKN085 OVC110 12/08 A3015 RMK AO2 RAE36 SLP209 P0001 T01220078
KJFK 242151Z 10008KT 10SM -RA SCT070 OVC090 13/06 A3015 RMK AO2 RAB49 SLP210 P0000 T01280061 $
KJFK 242051Z 11008KT 10SM OVC090 12/05 A3016 RMK AO2 SLP212 T01220050 55000 $
KJFK 241951Z 08008KT 10SM FEW050 OVC090 12/05 A3015 RMK AO2 SLP208 T01220050 $
KJFK 241851Z 14010KT 10SM FEW085 BKN100 OVC120 13/06 A3017 RMK AO2 SLP215 T01280061 $
KJFK 241751Z 12007KT 10SM BKN110 OVC170 13/07 A3016 RMK AO2 SLP212 T01330072 10139 20100 58010
KJFK 241651Z 12009KT 10SM BKN120 OVC200 13/07 A3017 RMK AO2 SLP217 T01280067
KJFK 241551Z 12007KT 10SM BKN120 OVC220 13/06 A3018 RMK AO2 SLP220 T01330056
KJFK 241451Z 13006KT 10SM BKN130 OVC250 13/06 A3019 RMK AO2 SLP223 T01280056 51003
KJFK 241351Z 08004KT 10SM BKN130 OVC250 12/07 A3019 RMK AO2 SLP222 T01170067
KJFK 241251Z 11006KT 10SM BKN150 BKN250 11/08 A3019 RMK AO2 SLP222 T01060078
KJFK 241151Z 11006KT 10SM BKN150 BKN250 10/09 A3018 RMK AO2 SLP220 T01000089 10100 20067 53015
KJFK 241051Z 10003KT 9SM FEW012 FEW130 BKN190 BKN250 09/08 A3016 RMK AO2 SLP213 T00890083
KJFK 240951Z 08004KT 10SM SCT180 08/07 A3014 RMK AO2 SLP206 T00780072
KJFK 240851Z 00000KT 10SM SCT250 07/06 A3014 RMK AO2 SLP205 T00670061 55001
KJFK 240751Z 08003KT 10SM SCT250 07/06 A3012 RMK AO2 SLP200 T00670061
KJFK 240651Z 14003KT 9SM BKN250 08/07 A3012 RMK AO2 SLP199 T00780072